sensor_id;sensor_type;location;lat;lon;timestamp;temperature;humidity
20479;DHT22;10398;52.490;13.434;2023-04-03T00:01:16;4.70;99.90
20479;DHT22;10398;52.490;13.434;2023-04-03T00:03:43;4.70;99.90
20479;DHT22;10398;52.490;13.434;2023-04-03T00:06:09;4.60;99.90
20479;DHT22;10398;52.490;13.434;2023-04-03T00:08:36;4.50;99.90
20479;DHT22;10398;52.490;13.434;2023-04-03T00:11:03;4.50;99.90
20479;DHT22;10398;52.490;13.434;2023-04-03T00:13:29;4.60;99.90
20479;DHT22;10398;52.490;13.434;2023-04-03T00:15:55;4.60;99.90
20479;DHT22;10398;52.490;13.434;2023-04-03T00:18:21;4.50;99.90
20479;DHT22;10398;52.490;13.434;2023-04-03T00:20:47;4.50;99.90
20479;DHT22;10398;52.490;13.434;2023-04-03T00:23:12;4.50;99.90
20479;DHT22;10398;52.490;13.434;2023-04-03T00:25:38;4.50;99.90
20479;DHT22;10398;52.490;13.434;2023-04-03T00:28:05;4.50;99.90
20479;DHT22;10398;52.490;13.434;2023-04-03T00:30:33;4.50;99.90
20479;DHT22;10398;52.490;13.434;2023-04-03T00:32:59;4.60;99.90
20479;DHT22;10398;52.490;13.434;2023-04-03T00:35:26;4.70;99.90
20479;DHT22;10398;52.490;13.434;2023-04-03T00:37:53;4.70;99.90
20479;DHT22;10398;52.490;13.434;2023-04-03T00:40:20;4.70;99.90
20479;DHT22;10398;52.490;13.434;2023-04-03T00:42:47;4.70;99.90
20479;DHT22;10398;52.490;13.434;2023-04-03T00:45:30;4.70;99.90
20479;DHT22;10398;52.490;13.434;2023-04-03T00:47:56;4.80;99.90
20479;DHT22;10398;52.490;13.434;2023-04-03T00:50:26;4.90;99.90
20479;DHT22;10398;52.490;13.434;2023-04-03T00:52:52;4.90;99.90
20479;DHT22;10398;52.490;13.434;2023-04-03T00:55:18;4.90;99.90
20479;DHT22;10398;52.490;13.434;2023-04-03T00:57:44;5.00;99.90
20479;DHT22;10398;52.490;13.434;2023-04-03T01:00:13;5.00;99.90
20479;DHT22;10398;52.490;13.434;2023-04-03T01:02:39;5.00;99.90
20479;DHT22;10398;52.490;13.434;2023-04-03T01:05:08;5.10;99.90
20479;DHT22;10398;52.490;13.434;2023-04-03T01:07:35;5.20;99.90
20479;DHT22;10398;52.490;13.434;2023-04-03T01:10:05;5.20;99.90
20479;DHT22;10398;52.490;13.434;2023-04-03T01:12:35;5.20;99.90
20479;DHT22;10398;52.490;13.434;2023-04-03T01:15:06;5.10;99.90
20479;DHT22;10398;52.490;13.434;2023-04-03T01:17:33;5.10;99.90
20479;DHT22;10398;52.490;13.434;2023-04-03T01:22:39;5.10;99.90
20479;DHT22;10398;52.490;13.434;2023-04-03T01:25:09;5.10;99.90
20479;DHT22;10398;52.490;13.434;2023-04-03T01:27:35;5.10;99.90
20479;DHT22;10398;52.490;13.434;2023-04-03T01:30:01;5.10;99.90
20479;DHT22;10398;52.490;13.434;2023-04-03T01:32:26;5.10;99.90
20479;DHT22;10398;52.490;13.434;2023-04-03T01:34:52;5.10;99.90
20479;DHT22;10398;52.490;13.434;2023-04-03T01:37:18;5.20;99.90
20479;DHT22;10398;52.490;13.434;2023-04-03T01:39:43;5.10;99.90
20479;DHT22;10398;52.490;13.434;2023-04-03T01:42:09;5.10;99.90
20479;DHT22;10398;52.490;13.434;2023-04-03T01:44:36;5.10;99.90
20479;DHT22;10398;52.490;13.434;2023-04-03T01:47:02;5.00;99.90
20479;DHT22;10398;52.490;13.434;2023-04-03T01:49:30;5.00;99.90
20479;DHT22;10398;52.490;13.434;2023-04-03T01:51:56;5.10;99.90
20479;DHT22;10398;52.490;13.434;2023-04-03T01:54:21;5.10;99.90
20479;DHT22;10398;52.490;13.434;2023-04-03T01:56:47;5.20;99.90
20479;DHT22;10398;52.490;13.434;2023-04-03T01:59:13;5.10;99.90
20479;DHT22;10398;52.490;13.434;2023-04-03T02:01:38;5.20;99.90
20479;DHT22;10398;52.490;13.434;2023-04-03T02:04:04;5.40;99.90
20479;DHT22;10398;52.490;13.434;2023-04-03T02:06:30;5.50;99.90
20479;DHT22;10398;52.490;13.434;2023-04-03T02:08:56;5.50;99.90
20479;DHT22;10398;52.490;13.434;2023-04-03T02:11:22;5.70;99.90
20479;DHT22;10398;52.490;13.434;2023-04-03T02:13:47;5.80;99.90
20479;DHT22;10398;52.490;13.434;2023-04-03T02:16:13;5.70;99.90
20479;DHT22;10398;52.490;13.434;2023-04-03T02:18:39;5.70;99.90
20479;DHT22;10398;52.490;13.434;2023-04-03T02:21:04;5.70;99.90
20479;DHT22;10398;52.490;13.434;2023-04-03T02:23:30;5.70;99.90
20479;DHT22;10398;52.490;13.434;2023-04-03T02:26:13;5.60;99.90
20479;DHT22;10398;52.490;13.434;2023-04-03T02:28:39;5.70;99.90
20479;DHT22;10398;52.490;13.434;2023-04-03T02:31:07;5.60;99.90
20479;DHT22;10398;52.490;13.434;2023-04-03T02:33:33;5.60;99.90
20479;DHT22;10398;52.490;13.434;2023-04-03T02:35:59;5.70;99.90
20479;DHT22;10398;52.490;13.434;2023-04-03T02:38:25;5.70;99.90
20479;DHT22;10398;52.490;13.434;2023-04-03T02:40:51;5.80;99.90
20479;DHT22;10398;52.490;13.434;2023-04-03T02:43:18;5.70;99.90
20479;DHT22;10398;52.490;13.434;2023-04-03T02:45:43;5.70;99.90
20479;DHT22;10398;52.490;13.434;2023-04-03T02:48:09;5.70;99.90
20479;DHT22;10398;52.490;13.434;2023-04-03T02:50:35;5.70;99.90
20479;DHT22;10398;52.490;13.434;2023-04-03T02:53:01;5.70;99.90
20479;DHT22;10398;52.490;13.434;2023-04-03T02:55:26;5.80;99.90
20479;DHT22;10398;52.490;13.434;2023-04-03T02:57:52;5.80;99.90
20479;DHT22;10398;52.490;13.434;2023-04-03T03:00:18;5.80;99.90
20479;DHT22;10398;52.490;13.434;2023-04-03T03:02:44;5.80;99.90
20479;DHT22;10398;52.490;13.434;2023-04-03T03:05:09;5.70;99.90
20479;DHT22;10398;52.490;13.434;2023-04-03T03:07:35;5.70;99.90
20479;DHT22;10398;52.490;13.434;2023-04-03T03:10:01;5.70;99.90
20479;DHT22;10398;52.490;13.434;2023-04-03T03:12:26;5.70;99.90
20479;DHT22;10398;52.490;13.434;2023-04-03T03:14:52;5.70;99.90
20479;DHT22;10398;52.490;13.434;2023-04-03T03:17:17;5.60;99.90
20479;DHT22;10398;52.490;13.434;2023-04-03T03:19:43;5.60;99.90
20479;DHT22;10398;52.490;13.434;2023-04-03T03:22:11;5.50;99.90
20479;DHT22;10398;52.490;13.434;2023-04-03T03:24:36;5.50;99.90
20479;DHT22;10398;52.490;13.434;2023-04-03T03:27:02;5.40;99.90
20479;DHT22;10398;52.490;13.434;2023-04-03T03:29:28;5.40;99.90
20479;DHT22;10398;52.490;13.434;2023-04-03T03:31:53;5.50;99.90
20479;DHT22;10398;52.490;13.434;2023-04-03T03:34:19;5.40;99.90
20479;DHT22;10398;52.490;13.434;2023-04-03T03:36:45;5.40;99.90
20479;DHT22;10398;52.490;13.434;2023-04-03T03:39:10;5.30;99.90
20479;DHT22;10398;52.490;13.434;2023-04-03T03:41:36;5.30;99.90
20479;DHT22;10398;52.490;13.434;2023-04-03T03:44:02;5.40;99.90
20479;DHT22;10398;52.490;13.434;2023-04-03T03:46:27;5.40;99.90
20479;DHT22;10398;52.490;13.434;2023-04-03T03:48:53;5.30;99.90
20479;DHT22;10398;52.490;13.434;2023-04-03T03:51:18;5.30;99.90
20479;DHT22;10398;52.490;13.434;2023-04-03T03:53:44;5.30;99.90
20479;DHT22;10398;52.490;13.434;2023-04-03T03:56:10;5.40;99.90
20479;DHT22;10398;52.490;13.434;2023-04-03T03:58:35;5.40;99.90
20479;DHT22;10398;52.490;13.434;2023-04-03T04:01:03;5.30;99.90
20479;DHT22;10398;52.490;13.434;2023-04-03T04:03:29;5.30;99.90
20479;DHT22;10398;52.490;13.434;2023-04-03T04:05:55;5.30;99.90
20479;DHT22;10398;52.490;13.434;2023-04-03T04:08:20;5.30;99.90
20479;DHT22;10398;52.490;13.434;2023-04-03T04:10:46;5.30;99.90
20479;DHT22;10398;52.490;13.434;2023-04-03T04:13:12;5.30;99.90
20479;DHT22;10398;52.490;13.434;2023-04-03T04:15:37;5.30;99.90
20479;DHT22;10398;52.490;13.434;2023-04-03T04:18:03;5.30;99.90
20479;DHT22;10398;52.490;13.434;2023-04-03T04:20:29;5.30;99.90
20479;DHT22;10398;52.490;13.434;2023-04-03T04:22:54;5.30;99.90
20479;DHT22;10398;52.490;13.434;2023-04-03T04:25:20;5.30;99.90
20479;DHT22;10398;52.490;13.434;2023-04-03T04:27:46;5.30;99.90
20479;DHT22;10398;52.490;13.434;2023-04-03T04:30:12;5.30;99.90
20479;DHT22;10398;52.490;13.434;2023-04-03T04:32:38;5.30;99.90
20479;DHT22;10398;52.490;13.434;2023-04-03T04:35:04;5.30;99.90
20479;DHT22;10398;52.490;13.434;2023-04-03T04:37:31;5.20;99.90
20479;DHT22;10398;52.490;13.434;2023-04-03T04:39:56;5.40;99.90
20479;DHT22;10398;52.490;13.434;2023-04-03T04:42:22;5.40;99.90
20479;DHT22;10398;52.490;13.434;2023-04-03T04:44:47;5.40;99.90
20479;DHT22;10398;52.490;13.434;2023-04-03T04:47:13;5.30;99.90
20479;DHT22;10398;52.490;13.434;2023-04-03T04:49:39;5.30;99.90
20479;DHT22;10398;52.490;13.434;2023-04-03T04:52:05;5.40;99.90
20479;DHT22;10398;52.490;13.434;2023-04-03T04:54:30;5.40;99.90
20479;DHT22;10398;52.490;13.434;2023-04-03T04:56:56;5.50;99.90
20479;DHT22;10398;52.490;13.434;2023-04-03T04:59:22;5.40;99.90
20479;DHT22;10398;52.490;13.434;2023-04-03T05:01:47;5.40;99.90
20479;DHT22;10398;52.490;13.434;2023-04-03T05:04:13;5.40;99.90
20479;DHT22;10398;52.490;13.434;2023-04-03T05:06:39;5.40;99.90
20479;DHT22;10398;52.490;13.434;2023-04-03T05:09:05;5.40;99.90
20479;DHT22;10398;52.490;13.434;2023-04-03T05:11:31;5.40;99.90
20479;DHT22;10398;52.490;13.434;2023-04-03T05:13:56;5.50;99.90
20479;DHT22;10398;52.490;13.434;2023-04-03T05:16:22;5.40;99.90
20479;DHT22;10398;52.490;13.434;2023-04-03T05:18:47;5.40;99.90
20479;DHT22;10398;52.490;13.434;2023-04-03T05:21:13;5.40;99.90
20479;DHT22;10398;52.490;13.434;2023-04-03T05:23:39;5.30;99.90
20479;DHT22;10398;52.490;13.434;2023-04-03T05:26:04;5.30;99.90
20479;DHT22;10398;52.490;13.434;2023-04-03T05:28:31;5.30;99.90
20479;DHT22;10398;52.490;13.434;2023-04-03T05:30:57;5.40;99.90
20479;DHT22;10398;52.490;13.434;2023-04-03T05:33:24;5.30;99.90
20479;DHT22;10398;52.490;13.434;2023-04-03T05:35:50;5.40;99.90
20479;DHT22;10398;52.490;13.434;2023-04-03T05:38:15;5.40;99.90
20479;DHT22;10398;52.490;13.434;2023-04-03T05:40:41;5.40;99.90
20479;DHT22;10398;52.490;13.434;2023-04-03T05:43:07;5.40;99.90
20479;DHT22;10398;52.490;13.434;2023-04-03T05:45:33;5.40;99.90
20479;DHT22;10398;52.490;13.434;2023-04-03T05:47:58;5.40;99.90
20479;DHT22;10398;52.490;13.434;2023-04-03T05:50:24;5.40;99.90
20479;DHT22;10398;52.490;13.434;2023-04-03T05:52:51;5.40;99.90
20479;DHT22;10398;52.490;13.434;2023-04-03T05:55:18;5.50;99.90
20479;DHT22;10398;52.490;13.434;2023-04-03T05:57:43;5.50;99.90
20479;DHT22;10398;52.490;13.434;2023-04-03T06:00:13;5.50;99.90
20479;DHT22;10398;52.490;13.434;2023-04-03T06:02:41;5.40;99.90
20479;DHT22;10398;52.490;13.434;2023-04-03T06:05:08;5.50;99.90
20479;DHT22;10398;52.490;13.434;2023-04-03T06:07:34;5.60;99.90
20479;DHT22;10398;52.490;13.434;2023-04-03T06:10:00;5.60;99.90
20479;DHT22;10398;52.490;13.434;2023-04-03T06:12:27;5.60;99.90
20479;DHT22;10398;52.490;13.434;2023-04-03T06:14:55;5.70;99.90
20479;DHT22;10398;52.490;13.434;2023-04-03T06:17:20;5.80;99.90
20479;DHT22;10398;52.490;13.434;2023-04-03T06:19:46;5.80;99.90
20479;DHT22;10398;52.490;13.434;2023-04-03T06:22:13;5.90;99.90
20479;DHT22;10398;52.490;13.434;2023-04-03T06:24:38;6.00;99.90
20479;DHT22;10398;52.490;13.434;2023-04-03T06:27:04;6.00;99.90
20479;DHT22;10398;52.490;13.434;2023-04-03T06:29:30;5.90;99.90
20479;DHT22;10398;52.490;13.434;2023-04-03T06:31:56;6.00;99.90
20479;DHT22;10398;52.490;13.434;2023-04-03T06:34:22;6.00;99.90
20479;DHT22;10398;52.490;13.434;2023-04-03T06:36:48;6.00;99.90
20479;DHT22;10398;52.490;13.434;2023-04-03T06:39:20;5.80;99.90
20479;DHT22;10398;52.490;13.434;2023-04-03T06:41:46;5.70;99.90
20479;DHT22;10398;52.490;13.434;2023-04-03T06:44:12;5.70;99.90
20479;DHT22;10398;52.490;13.434;2023-04-03T06:46:41;5.70;99.90
20479;DHT22;10398;52.490;13.434;2023-04-03T06:49:07;5.80;99.90
20479;DHT22;10398;52.490;13.434;2023-04-03T06:51:33;5.90;99.90
20479;DHT22;10398;52.490;13.434;2023-04-03T06:54:00;5.90;99.90
20479;DHT22;10398;52.490;13.434;2023-04-03T06:56:26;5.90;99.90
20479;DHT22;10398;52.490;13.434;2023-04-03T06:58:53;5.90;99.90
20479;DHT22;10398;52.490;13.434;2023-04-03T07:01:27;5.90;99.90
20479;DHT22;10398;52.490;13.434;2023-04-03T07:03:53;5.80;99.90
20479;DHT22;10398;52.490;13.434;2023-04-03T07:06:19;5.80;99.90
20479;DHT22;10398;52.490;13.434;2023-04-03T07:08:45;5.90;99.90
20479;DHT22;10398;52.490;13.434;2023-04-03T07:11:12;5.80;99.90
20479;DHT22;10398;52.490;13.434;2023-04-03T07:13:38;5.80;99.90
20479;DHT22;10398;52.490;13.434;2023-04-03T07:16:05;5.80;99.90
20479;DHT22;10398;52.490;13.434;2023-04-03T07:18:32;5.90;99.90
20479;DHT22;10398;52.490;13.434;2023-04-03T07:20:58;6.00;99.90
20479;DHT22;10398;52.490;13.434;2023-04-03T07:23:24;5.90;99.90
20479;DHT22;10398;52.490;13.434;2023-04-03T07:25:51;5.90;99.90
20479;DHT22;10398;52.490;13.434;2023-04-03T07:28:18;5.90;99.90
20479;DHT22;10398;52.490;13.434;2023-04-03T07:31:03;5.80;99.90
20479;DHT22;10398;52.490;13.434;2023-04-03T07:33:30;5.70;99.90
20479;DHT22;10398;52.490;13.434;2023-04-03T07:35:56;5.70;99.90
20479;DHT22;10398;52.490;13.434;2023-04-03T07:38:22;5.70;99.90
20479;DHT22;10398;52.490;13.434;2023-04-03T07:40:49;5.80;99.90
20479;DHT22;10398;52.490;13.434;2023-04-03T07:43:18;5.90;99.90
20479;DHT22;10398;52.490;13.434;2023-04-03T07:45:43;6.10;99.90
20479;DHT22;10398;52.490;13.434;2023-04-03T07:48:13;6.30;99.90
20479;DHT22;10398;52.490;13.434;2023-04-03T07:50:42;6.70;99.90
20479;DHT22;10398;52.490;13.434;2023-04-03T07:53:08;7.00;99.90
20479;DHT22;10398;52.490;13.434;2023-04-03T07:55:34;7.60;99.90
20479;DHT22;10398;52.490;13.434;2023-04-03T07:58:00;8.20;99.90
20479;DHT22;10398;52.490;13.434;2023-04-03T08:00:26;8.70;99.90
20479;DHT22;10398;52.490;13.434;2023-04-03T08:02:51;9.00;99.90
20479;DHT22;10398;52.490;13.434;2023-04-03T08:05:18;8.90;99.90
20479;DHT22;10398;52.490;13.434;2023-04-03T08:07:45;8.50;99.40
20479;DHT22;10398;52.490;13.434;2023-04-03T08:10:12;8.20;99.80
20479;DHT22;10398;52.490;13.434;2023-04-03T08:12:37;7.90;99.90
20479;DHT22;10398;52.490;13.434;2023-04-03T08:15:04;7.80;99.90
20479;DHT22;10398;52.490;13.434;2023-04-03T08:17:30;7.80;99.90
20479;DHT22;10398;52.490;13.434;2023-04-03T08:19:55;7.70;99.80
20479;DHT22;10398;52.490;13.434;2023-04-03T08:22:21;7.50;99.60
20479;DHT22;10398;52.490;13.434;2023-04-03T08:24:47;7.30;99.90
20479;DHT22;10398;52.490;13.434;2023-04-03T08:27:12;7.10;99.90
20479;DHT22;10398;52.490;13.434;2023-04-03T08:29:38;7.20;99.90
20479;DHT22;10398;52.490;13.434;2023-04-03T08:32:05;7.20;99.90
20479;DHT22;10398;52.490;13.434;2023-04-03T08:34:30;7.30;99.90
20479;DHT22;10398;52.490;13.434;2023-04-03T08:37:00;7.30;99.40
20479;DHT22;10398;52.490;13.434;2023-04-03T08:39:26;7.20;99.70
20479;DHT22;10398;52.490;13.434;2023-04-03T08:41:52;7.20;99.90
20479;DHT22;10398;52.490;13.434;2023-04-03T08:49:56;6.80;98.60
20479;DHT22;10398;52.490;13.434;2023-04-03T08:52:36;6.50;97.90
20479;DHT22;10398;52.490;13.434;2023-04-03T08:55:28;6.40;97.80
20479;DHT22;10398;52.490;13.434;2023-04-03T08:58:01;6.30;98.10
20479;DHT22;10398;52.490;13.434;2023-04-03T09:00:31;6.60;99.90
20479;DHT22;10398;52.490;13.434;2023-04-03T09:02:58;6.50;99.30
20479;DHT22;10398;52.490;13.434;2023-04-03T09:05:39;6.40;99.40
20479;DHT22;10398;52.490;13.434;2023-04-03T09:08:18;6.40;99.40
20479;DHT22;10398;52.490;13.434;2023-04-03T09:10:46;6.50;99.20
20479;DHT22;10398;52.490;13.434;2023-04-03T09:15:56;6.60;98.40
20479;DHT22;10398;52.490;13.434;2023-04-03T09:18:42;6.60;98.50
20479;DHT22;10398;52.490;13.434;2023-04-03T09:21:58;6.80;99.10
20479;DHT22;10398;52.490;13.434;2023-04-03T09:24:07;7.10;99.90
20479;DHT22;10398;52.490;13.434;2023-04-03T09:26:51;7.70;99.90
20479;DHT22;10398;52.490;13.434;2023-04-03T09:29:22;8.30;99.90
20479;DHT22;10398;52.490;13.434;2023-04-03T09:31:50;9.40;99.90
20479;DHT22;10398;52.490;13.434;2023-04-03T09:34:26;9.50;96.90
20479;DHT22;10398;52.490;13.434;2023-04-03T09:36:54;9.30;94.90
20479;DHT22;10398;52.490;13.434;2023-04-03T09:39:27;8.90;93.60
20479;DHT22;10398;52.490;13.434;2023-04-03T09:42:11;8.40;93.30
20479;DHT22;10398;52.490;13.434;2023-04-03T09:44:53;8.20;93.70
20479;DHT22;10398;52.490;13.434;2023-04-03T09:47:25;7.90;93.70
20479;DHT22;10398;52.490;13.434;2023-04-03T09:52:41;7.60;93.80
20479;DHT22;10398;52.490;13.434;2023-04-03T09:55:10;7.60;94.40
20479;DHT22;10398;52.490;13.434;2023-04-03T09:57:38;7.40;94.10
20479;DHT22;10398;52.490;13.434;2023-04-03T10:00:05;7.40;94.80
20479;DHT22;10398;52.490;13.434;2023-04-03T10:02:37;7.30;94.70
20479;DHT22;10398;52.490;13.434;2023-04-03T10:05:05;7.20;94.80
20479;DHT22;10398;52.490;13.434;2023-04-03T10:07:49;7.10;95.50
20479;DHT22;10398;52.490;13.434;2023-04-03T10:10:20;7.00;95.50
20479;DHT22;10398;52.490;13.434;2023-04-03T10:12:48;7.10;95.80
20479;DHT22;10398;52.490;13.434;2023-04-03T10:15:16;7.30;96.30
20479;DHT22;10398;52.490;13.434;2023-04-03T10:20:36;7.40;95.30
20479;DHT22;10398;52.490;13.434;2023-04-03T10:23:17;7.40;95.10
20479;DHT22;10398;52.490;13.434;2023-04-03T10:34:35;7.30;96.30
20479;DHT22;10398;52.490;13.434;2023-04-03T10:37:24;7.50;96.30
20479;DHT22;10398;52.490;13.434;2023-04-03T10:40:15;7.60;95.50
20479;DHT22;10398;52.490;13.434;2023-04-03T10:43:08;7.60;95.30
20479;DHT22;10398;52.490;13.434;2023-04-03T10:45:49;7.50;95.00
20479;DHT22;10398;52.490;13.434;2023-04-03T10:56:47;7.40;94.40
20479;DHT22;10398;52.490;13.434;2023-04-03T10:59:33;7.30;94.40
20479;DHT22;10398;52.490;13.434;2023-04-03T11:02:25;7.20;95.10
20479;DHT22;10398;52.490;13.434;2023-04-03T11:05:02;7.30;95.00
20479;DHT22;10398;52.490;13.434;2023-04-03T11:07:37;7.40;95.30
20479;DHT22;10398;52.490;13.434;2023-04-03T11:10:12;7.50;95.30
20479;DHT22;10398;52.490;13.434;2023-04-03T11:13:12;7.60;95.30
20479;DHT22;10398;52.490;13.434;2023-04-03T11:15:38;7.50;94.80
20479;DHT22;10398;52.490;13.434;2023-04-03T11:18:17;7.40;94.70
20479;DHT22;10398;52.490;13.434;2023-04-03T11:23:36;7.20;95.40
20479;DHT22;10398;52.490;13.434;2023-04-03T11:26:15;7.10;95.30
20479;DHT22;10398;52.490;13.434;2023-04-03T11:28:43;7.00;95.80
20479;DHT22;10398;52.490;13.434;2023-04-03T11:36:58;7.20;96.40
20479;DHT22;10398;52.490;13.434;2023-04-03T11:39:36;7.10;96.00
20479;DHT22;10398;52.490;13.434;2023-04-03T11:42:34;7.10;96.40
20479;DHT22;10398;52.490;13.434;2023-04-03T11:53:46;7.50;97.90
20479;DHT22;10398;52.490;13.434;2023-04-03T12:01:56;8.00;96.30
20479;DHT22;10398;52.490;13.434;2023-04-03T12:04:25;8.00;96.10
20479;DHT22;10398;52.490;13.434;2023-04-03T12:06:59;7.90;96.40
20479;DHT22;10398;52.490;13.434;2023-04-03T12:11:53;7.70;97.10
20479;DHT22;10398;52.490;13.434;2023-04-03T12:14:22;7.70;96.60
20479;DHT22;10398;52.490;13.434;2023-04-03T12:16:56;7.60;96.60
20479;DHT22;10398;52.490;13.434;2023-04-03T12:19:34;7.60;96.60
20479;DHT22;10398;52.490;13.434;2023-04-03T12:24:30;7.90;98.40
20479;DHT22;10398;52.490;13.434;2023-04-03T12:35:07;8.50;97.60
20479;DHT22;10398;52.490;13.434;2023-04-03T12:48:54;9.10;94.30
20479;DHT22;10398;52.490;13.434;2023-04-03T12:51:22;9.20;94.40
20479;DHT22;10398;52.490;13.434;2023-04-03T12:53:54;9.30;93.60
20479;DHT22;10398;52.490;13.434;2023-04-03T12:56:28;9.30;93.60
20479;DHT22;10398;52.490;13.434;2023-04-03T12:58:57;9.30;93.80
20479;DHT22;10398;52.490;13.434;2023-04-03T13:01:38;9.20;93.10
20479;DHT22;10398;52.490;13.434;2023-04-03T13:04:04;9.20;93.70
20479;DHT22;10398;52.490;13.434;2023-04-03T13:06:43;9.20;94.50
20479;DHT22;10398;52.490;13.434;2023-04-03T13:09:26;9.20;94.70
20479;DHT22;10398;52.490;13.434;2023-04-03T13:12:02;9.30;93.90
20479;DHT22;10398;52.490;13.434;2023-04-03T13:14:30;9.20;93.70
20479;DHT22;10398;52.490;13.434;2023-04-03T13:19:25;9.40;94.10
20479;DHT22;10398;52.490;13.434;2023-04-03T13:22:06;9.40;94.30
20479;DHT22;10398;52.490;13.434;2023-04-03T13:24:35;9.40;93.70
20479;DHT22;10398;52.490;13.434;2023-04-03T13:27:02;9.40;95.60
20479;DHT22;10398;52.490;13.434;2023-04-03T13:29:31;9.50;95.00
20479;DHT22;10398;52.490;13.434;2023-04-03T13:31:59;9.50;95.10
20479;DHT22;10398;52.490;13.434;2023-04-03T13:34:35;9.50;94.70
20479;DHT22;10398;52.490;13.434;2023-04-03T13:37:02;9.50;94.90
20479;DHT22;10398;52.490;13.434;2023-04-03T13:39:38;9.50;94.60
20479;DHT22;10398;52.490;13.434;2023-04-03T13:42:23;9.40;93.20
20479;DHT22;10398;52.490;13.434;2023-04-03T13:44:48;9.40;93.60
20479;DHT22;10398;52.490;13.434;2023-04-03T13:47:19;9.30;94.50
20479;DHT22;10398;52.490;13.434;2023-04-03T13:50:12;9.10;93.10
20479;DHT22;10398;52.490;13.434;2023-04-03T13:53:01;8.90;94.00
20479;DHT22;10398;52.490;13.434;2023-04-03T13:55:31;8.90;94.40
20479;DHT22;10398;52.490;13.434;2023-04-03T13:57:59;8.90;94.40
20479;DHT22;10398;52.490;13.434;2023-04-03T14:02:57;8.60;94.40
20479;DHT22;10398;52.490;13.434;2023-04-03T14:05:24;8.50;94.70
20479;DHT22;10398;52.490;13.434;2023-04-03T14:07:53;8.50;95.70
20479;DHT22;10398;52.490;13.434;2023-04-03T14:10:19;8.50;95.70
20479;DHT22;10398;52.490;13.434;2023-04-03T14:12:44;8.50;95.20
20479;DHT22;10398;52.490;13.434;2023-04-03T14:15:22;8.40;95.40
20479;DHT22;10398;52.490;13.434;2023-04-03T14:17:50;8.50;95.00
20479;DHT22;10398;52.490;13.434;2023-04-03T14:20:19;8.70;96.00
20479;DHT22;10398;52.490;13.434;2023-04-03T14:22:49;8.90;95.50
20479;DHT22;10398;52.490;13.434;2023-04-03T14:25:15;8.90;95.10
20479;DHT22;10398;52.490;13.434;2023-04-03T14:27:43;8.90;95.40
20479;DHT22;10398;52.490;13.434;2023-04-03T14:30:17;9.10;95.80
20479;DHT22;10398;52.490;13.434;2023-04-03T14:32:43;9.20;95.00
20479;DHT22;10398;52.490;13.434;2023-04-03T14:35:09;9.30;95.00
20479;DHT22;10398;52.490;13.434;2023-04-03T14:37:35;9.60;95.70
20479;DHT22;10398;52.490;13.434;2023-04-03T14:40:03;9.80;95.10
20479;DHT22;10398;52.490;13.434;2023-04-03T14:42:32;10.00;95.20
20479;DHT22;10398;52.490;13.434;2023-04-03T14:45:00;9.90;93.60
20479;DHT22;10398;52.490;13.434;2023-04-03T14:47:28;9.80;94.80
20479;DHT22;10398;52.490;13.434;2023-04-03T14:49:54;9.80;95.00
20479;DHT22;10398;52.490;13.434;2023-04-03T14:52:24;9.80;94.10
20479;DHT22;10398;52.490;13.434;2023-04-03T14:54:54;9.80;94.40
20479;DHT22;10398;52.490;13.434;2023-04-03T14:57:23;9.70;94.00
20479;DHT22;10398;52.490;13.434;2023-04-03T14:59:55;9.60;94.50
20479;DHT22;10398;52.490;13.434;2023-04-03T15:02:31;9.60;94.90
20479;DHT22;10398;52.490;13.434;2023-04-03T15:04:58;9.50;95.00
20479;DHT22;10398;52.490;13.434;2023-04-03T15:07:27;9.40;94.50
20479;DHT22;10398;52.490;13.434;2023-04-03T15:09:53;9.40;94.70
20479;DHT22;10398;52.490;13.434;2023-04-03T15:12:25;9.40;94.90
20479;DHT22;10398;52.490;13.434;2023-04-03T15:14:50;9.30;94.90
20479;DHT22;10398;52.490;13.434;2023-04-03T15:17:19;9.10;95.50
20479;DHT22;10398;52.490;13.434;2023-04-03T15:19:45;8.90;95.50
20479;DHT22;10398;52.490;13.434;2023-04-03T15:22:16;8.80;96.30
20479;DHT22;10398;52.490;13.434;2023-04-03T15:24:43;8.60;96.00
20479;DHT22;10398;52.490;13.434;2023-04-03T15:27:09;8.50;96.40
20479;DHT22;10398;52.490;13.434;2023-04-03T15:29:36;8.40;97.10
20479;DHT22;10398;52.490;13.434;2023-04-03T15:32:01;8.40;97.20
20479;DHT22;10398;52.490;13.434;2023-04-03T15:34:28;8.30;97.20
20479;DHT22;10398;52.490;13.434;2023-04-03T15:36:54;8.30;97.30
20479;DHT22;10398;52.490;13.434;2023-04-03T15:39:22;8.30;97.80
20479;DHT22;10398;52.490;13.434;2023-04-03T15:41:48;8.30;98.00
20479;DHT22;10398;52.490;13.434;2023-04-03T15:44:14;8.40;98.10
20479;DHT22;10398;52.490;13.434;2023-04-03T15:46:43;8.50;97.90
20479;DHT22;10398;52.490;13.434;2023-04-03T15:49:09;8.50;97.50
20479;DHT22;10398;52.490;13.434;2023-04-03T15:51:35;8.50;97.20
20479;DHT22;10398;52.490;13.434;2023-04-03T15:54:01;8.40;97.00
20479;DHT22;10398;52.490;13.434;2023-04-03T15:56:26;8.30;97.30
20479;DHT22;10398;52.490;13.434;2023-04-03T15:58:52;8.40;97.50
20479;DHT22;10398;52.490;13.434;2023-04-03T16:01:18;8.50;98.30
20479;DHT22;10398;52.490;13.434;2023-04-03T16:03:44;8.50;97.90
20479;DHT22;10398;52.490;13.434;2023-04-03T16:06:15;8.50;97.60
20479;DHT22;10398;52.490;13.434;2023-04-03T16:08:41;8.60;97.30
20479;DHT22;10398;52.490;13.434;2023-04-03T16:11:08;8.60;97.70
20479;DHT22;10398;52.490;13.434;2023-04-03T16:13:33;8.60;98.00
20479;DHT22;10398;52.490;13.434;2023-04-03T16:16:00;8.70;98.30
20479;DHT22;10398;52.490;13.434;2023-04-03T16:18:27;8.90;98.80
20479;DHT22;10398;52.490;13.434;2023-04-03T16:20:53;9.10;97.90
20479;DHT22;10398;52.490;13.434;2023-04-03T16:23:20;9.10;96.90
20479;DHT22;10398;52.490;13.434;2023-04-03T16:25:46;9.20;96.80
20479;DHT22;10398;52.490;13.434;2023-04-03T16:28:16;9.30;97.00
20479;DHT22;10398;52.490;13.434;2023-04-03T16:30:44;9.30;96.50
20479;DHT22;10398;52.490;13.434;2023-04-03T16:33:11;9.40;96.50
20479;DHT22;10398;52.490;13.434;2023-04-03T16:35:37;9.50;96.30
20479;DHT22;10398;52.490;13.434;2023-04-03T16:38:02;9.50;96.20
20479;DHT22;10398;52.490;13.434;2023-04-03T16:40:28;9.40;96.00
20479;DHT22;10398;52.490;13.434;2023-04-03T16:42:54;9.40;95.90
20479;DHT22;10398;52.490;13.434;2023-04-03T16:45:20;9.30;95.70
20479;DHT22;10398;52.490;13.434;2023-04-03T16:47:46;9.20;95.60
20479;DHT22;10398;52.490;13.434;2023-04-03T16:50:12;9.20;96.50
20479;DHT22;10398;52.490;13.434;2023-04-03T16:52:38;9.10;96.40
20479;DHT22;10398;52.490;13.434;2023-04-03T16:55:04;9.00;96.30
20479;DHT22;10398;52.490;13.434;2023-04-03T16:57:29;8.80;96.20
20479;DHT22;10398;52.490;13.434;2023-04-03T16:59:55;8.40;96.50
20479;DHT22;10398;52.490;13.434;2023-04-03T17:02:22;8.20;96.90
20479;DHT22;10398;52.490;13.434;2023-04-03T17:04:50;8.10;97.60